»·PEaware :: WAT169 KLAS-KRNO

WAT169 :: KLAS-KRNO

FLIGHT INFORMATION

Flight Status: Arrived
Operator:
Walker Air Transport
More flights by this operator :: More flights under this callsign
Pilot: Marty P. (27464)
Aircraft: BOEING 737-800
(B738)
More flights by this aircraft type
Origin: KLAS McCarran Intl
United States
Destination: KRNO Reno/Tahoe Intl
United States
More flights between these airports :: More routes between these airports
Route: SHEAD1 KENNO KENNO2
File this flight plan on PilotEdge
Remarks:
Altitude:
(Current/Filed)
32,000ft
Speed:
(Current/Filed)
480kts
Departed: 10-Oct-20 07:42 AM
Arrived: 10-Oct-20 08:36 AM
Distance/Time
Traveled:
300nm/0:54
Distance/Time
To Go:
Arrived

Flight Plot

Page will automatically refresh every two minutes.

Flight plan parsing failed; only flown route is shown


Map Options




Map Legend


Flown Route
Filed Route
Departure Airport
Arrival Airport
Navaid (VOR, NDB)
Fix

Horizontal Profiles

Position Reports

Time Latitude Longitude Heading Altitude Ground
Speed
10-Oct-20 07:22 36.080317 -115.147298 66 2102ft 0kts
10-Oct-20 07:23 36.080317 -115.147298 66 2102ft 0kts
10-Oct-20 07:24 36.080317 -115.147298 66 2102ft 0kts
10-Oct-20 07:25 36.080317 -115.147298 66 2102ft 0kts
10-Oct-20 07:26 36.080317 -115.147298 66 2102ft 0kts
10-Oct-20 07:27 36.080317 -115.147298 66 2102ft 0kts
10-Oct-20 07:28 36.080317 -115.147298 66 2102ft 0kts
10-Oct-20 07:29 36.080317 -115.147298 66 2102ft 0kts
10-Oct-20 07:30 36.080317 -115.147298 66 2102ft 0kts
10-Oct-20 07:31 36.080316 -115.147298 66 2102ft 0kts
10-Oct-20 07:31 36.080306 -115.147676 100 2102ft 2kts
10-Oct-20 07:33 36.080660 -115.148244 157 2102ft 1kts
10-Oct-20 07:33 36.080678 -115.148254 156 2102ft 0kts
10-Oct-20 07:35 36.080165 -115.147996 158 2102ft 7kts
10-Oct-20 07:35 36.078728 -115.147147 140 2102ft 11kts
10-Oct-20 07:37 36.078267 -115.141003 90 2102ft 20kts
10-Oct-20 07:37 36.078270 -115.134693 90 2102ft 23kts
10-Oct-20 07:38 36.078277 -115.126737 90 2102ft 21kts
10-Oct-20 07:39 36.077623 -115.121720 128 2102ft 5kts
10-Oct-20 07:40 36.076424 -115.121928 272 2102ft 10kts
10-Oct-20 07:41 36.076564 -115.164130 271 2855ft 171kts
10-Oct-20 07:42 36.072286 -115.234467 245 4529ft 249kts
10-Oct-20 07:43 36.014994 -115.281436 200 8338ft 268kts
10-Oct-20 07:44 35.949960 -115.326709 224 11916ft 285kts
10-Oct-20 07:45 35.894033 -115.416354 253 13357ft 368kts
10-Oct-20 07:46 35.888365 -115.542867 271 16575ft 378kts
10-Oct-20 07:47 35.891008 -115.674185 271 19309ft 390kts
10-Oct-20 07:48 35.893280 -115.810038 270 21679ft 403kts
10-Oct-20 07:49 35.904844 -115.948476 292 23784ft 416kts
10-Oct-20 07:50 35.978142 -116.060737 313 25661ft 430kts
10-Oct-20 07:51 36.064848 -116.164188 315 27659ft 433kts
10-Oct-20 07:52 36.154077 -116.268038 315 28928ft 449kts
10-Oct-20 07:53 36.246150 -116.374783 316 30275ft 459kts
10-Oct-20 07:54 36.339980 -116.483751 316 31668ft 463kts
10-Oct-20 07:55 36.434743 -116.594151 316 32221ft 483kts
10-Oct-20 07:56 36.535077 -116.710756 319 32222ft 503kts
10-Oct-20 07:57 36.650891 -116.810701 326 32237ft 512kts
10-Oct-20 07:58 36.772310 -116.905330 327 32241ft 516kts
10-Oct-20 07:59 36.894287 -116.998843 327 32266ft 516kts
10-Oct-20 08:00 37.016886 -117.092744 328 32291ft 516kts
10-Oct-20 08:01 37.138915 -117.186464 328 32304ft 516kts
10-Oct-20 08:02 37.260964 -117.280661 326 32365ft 515kts
10-Oct-20 08:03 37.373205 -117.391944 320 32384ft 515kts
10-Oct-20 08:04 37.483440 -117.505981 324 32383ft 515kts
10-Oct-20 08:05 37.602980 -117.604834 327 32384ft 514kts
10-Oct-20 08:06 37.723635 -117.701232 327 32384ft 514kts
10-Oct-20 08:07 37.844328 -117.797366 327 32392ft 514kts
10-Oct-20 08:08 37.965289 -117.893920 327 32407ft 514kts
10-Oct-20 08:09 38.085978 -117.990592 327 32418ft 514kts
10-Oct-20 08:10 38.206438 -118.087447 327 32429ft 514kts
10-Oct-20 08:11 38.322281 -118.180949 327 31551ft 467kts
10-Oct-20 08:12 38.427310 -118.277011 318 29766ft 472kts
10-Oct-20 08:13 38.523785 -118.392148 317 27958ft 479kts
10-Oct-20 08:14 38.620341 -118.510545 317 26154ft 485kts
10-Oct-20 08:15 38.715523 -118.628335 317 24596ft 471kts
10-Oct-20 08:16 38.809216 -118.745098 316 22744ft 462kts
10-Oct-20 08:17 38.899835 -118.858163 316 20793ft 449kts
10-Oct-20 08:18 38.988508 -118.969022 316 19387ft 444kts
10-Oct-20 08:19 39.075245 -119.078005 316 18083ft 432kts
10-Oct-20 08:20 39.160048 -119.185399 316 16881ft 425kts
10-Oct-20 08:21 39.240825 -119.287600 316 15649ft 384kts
10-Oct-20 08:22 39.313128 -119.379126 315 13403ft 337kts
10-Oct-20 08:23 39.378682 -119.453870 324 11496ft 297kts
10-Oct-20 08:24 39.442066 -119.512678 324 10368ft 247kts
10-Oct-20 08:25 39.496108 -119.563248 324 10346ft 240kts
10-Oct-20 08:26 39.559141 -119.592316 343 10157ft 244kts
10-Oct-20 08:27 39.622090 -119.615978 343 9224ft 228kts
10-Oct-20 08:28 39.685258 -119.628043 352 8233ft 234kts
10-Oct-20 08:29 39.707823 -119.689447 272 7869ft 195kts
10-Oct-20 08:30 39.696786 -119.756355 214 7873ft 201kts
10-Oct-20 08:31 39.642265 -119.770240 174 7129ft 204kts
10-Oct-20 08:32 39.587818 -119.768811 180 6022ft 173kts
10-Oct-20 08:33 39.543144 -119.769021 180 5119ft 158kts
10-Oct-20 08:34 39.501915 -119.769283 180 4425ft 78kts
10-Oct-20 08:35 39.497478 -119.770422 301 4425ft 0kts
10-Oct-20 08:36 39.497429 -119.770999 239 4425ft 8kts
10-Oct-20 08:37 39.503046 -119.771525 359 4425ft 26kts
10-Oct-20 08:38 39.504481 -119.772338 319 4425ft 0kts

Navigation Log

Ident Type
Flight plan parsing failed, navigation log unavailable